sensor_id;sensor_type;location;lat;lon;timestamp;P1;durP1;ratioP1;P2;durP2;ratioP2
73276;SDS011;61501;43.316;5.372;2024-01-11T00:01:45;3.40;;;2.40;;
73276;SDS011;61501;43.316;5.372;2024-01-11T00:04:12;3.25;;;2.70;;
73276;SDS011;61501;43.316;5.372;2024-01-11T00:06:44;3.92;;;2.55;;
73276;SDS011;61501;43.316;5.372;2024-01-11T00:09:10;4.13;;;2.60;;
73276;SDS011;61501;43.316;5.372;2024-01-11T00:11:35;3.95;;;2.63;;
73276;SDS011;61501;43.316;5.372;2024-01-11T00:14:01;3.13;;;2.40;;
73276;SDS011;61501;43.316;5.372;2024-01-11T00:16:27;3.17;;;2.40;;
73276;SDS011;61501;43.316;5.372;2024-01-11T00:18:53;3.95;;;2.60;;
73276;SDS011;61501;43.316;5.372;2024-01-11T00:21:18;3.53;;;3.10;;
73276;SDS011;61501;43.316;5.372;2024-01-11T00:23:44;2.92;;;2.60;;
73276;SDS011;61501;43.316;5.372;2024-01-11T00:26:13;3.13;;;2.83;;
73276;SDS011;61501;43.316;5.372;2024-01-11T00:28:38;3.30;;;2.58;;
73276;SDS011;61501;43.316;5.372;2024-01-11T00:31:04;3.33;;;2.63;;
73276;SDS011;61501;43.316;5.372;2024-01-11T00:33:30;3.67;;;2.65;;
73276;SDS011;61501;43.316;5.372;2024-01-11T00:35:55;3.40;;;3.08;;
73276;SDS011;61501;43.316;5.372;2024-01-11T00:38:21;4.18;;;2.85;;
73276;SDS011;61501;43.316;5.372;2024-01-11T00:40:47;3.53;;;2.67;;
73276;SDS011;61501;43.316;5.372;2024-01-11T00:43:12;3.60;;;2.72;;
73276;SDS011;61501;43.316;5.372;2024-01-11T00:45:38;3.42;;;2.80;;
73276;SDS011;61501;43.316;5.372;2024-01-11T00:48:04;4.32;;;2.78;;
73276;SDS011;61501;43.316;5.372;2024-01-11T00:50:30;4.53;;;2.97;;
73276;SDS011;61501;43.316;5.372;2024-01-11T00:52:56;4.40;;;2.83;;
73276;SDS011;61501;43.316;5.372;2024-01-11T00:55:21;4.15;;;3.05;;
73276;SDS011;61501;43.316;5.372;2024-01-11T00:57:47;5.10;;;3.10;;
73276;SDS011;61501;43.316;5.372;2024-01-11T01:00:13;3.78;;;3.08;;
73276;SDS011;61501;43.316;5.372;2024-01-11T01:02:39;4.60;;;3.35;;
73276;SDS011;61501;43.316;5.372;2024-01-11T01:05:05;4.57;;;2.95;;
73276;SDS011;61501;43.316;5.372;2024-01-11T01:07:31;3.92;;;3.05;;
73276;SDS011;61501;43.316;5.372;2024-01-11T01:09:57;4.20;;;3.15;;
73276;SDS011;61501;43.316;5.372;2024-01-11T01:12:23;5.70;;;3.47;;
73276;SDS011;61501;43.316;5.372;2024-01-11T01:14:50;3.90;;;3.10;;
73276;SDS011;61501;43.316;5.372;2024-01-11T01:17:16;3.95;;;3.00;;
73276;SDS011;61501;43.316;5.372;2024-01-11T01:19:42;4.20;;;3.33;;
73276;SDS011;61501;43.316;5.372;2024-01-11T01:22:08;4.85;;;3.40;;
73276;SDS011;61501;43.316;5.372;2024-01-11T01:24:34;5.15;;;3.28;;
73276;SDS011;61501;43.316;5.372;2024-01-11T01:26:59;4.25;;;3.20;;
73276;SDS011;61501;43.316;5.372;2024-01-11T01:29:25;4.38;;;3.08;;
73276;SDS011;61501;43.316;5.372;2024-01-11T01:31:51;4.45;;;3.38;;
73276;SDS011;61501;43.316;5.372;2024-01-11T01:34:17;5.18;;;3.38;;
73276;SDS011;61501;43.316;5.372;2024-01-11T01:36:43;4.45;;;3.30;;
73276;SDS011;61501;43.316;5.372;2024-01-11T01:39:09;4.57;;;3.45;;
73276;SDS011;61501;43.316;5.372;2024-01-11T01:41:35;4.18;;;2.92;;
73276;SDS011;61501;43.316;5.372;2024-01-11T01:44:00;4.07;;;3.20;;
73276;SDS011;61501;43.316;5.372;2024-01-11T01:46:26;4.60;;;3.53;;
73276;SDS011;61501;43.316;5.372;2024-01-11T01:48:53;4.97;;;3.25;;
73276;SDS011;61501;43.316;5.372;2024-01-11T01:51:22;4.88;;;3.45;;
73276;SDS011;61501;43.316;5.372;2024-01-11T01:53:48;4.05;;;3.28;;
73276;SDS011;61501;43.316;5.372;2024-01-11T01:56:17;5.47;;;3.17;;
73276;SDS011;61501;43.316;5.372;2024-01-11T01:58:43;3.97;;;2.95;;
73276;SDS011;61501;43.316;5.372;2024-01-11T02:01:09;4.40;;;3.08;;
73276;SDS011;61501;43.316;5.372;2024-01-11T02:03:35;3.63;;;2.83;;
73276;SDS011;61501;43.316;5.372;2024-01-11T02:06:02;4.25;;;3.10;;
73276;SDS011;61501;43.316;5.372;2024-01-11T02:08:31;4.10;;;3.20;;
73276;SDS011;61501;43.316;5.372;2024-01-11T02:10:58;4.40;;;3.22;;
73276;SDS011;61501;43.316;5.372;2024-01-11T02:13:25;4.68;;;3.53;;
73276;SDS011;61501;43.316;5.372;2024-01-11T02:15:50;4.65;;;3.20;;
73276;SDS011;61501;43.316;5.372;2024-01-11T02:18:16;4.40;;;3.20;;
73276;SDS011;61501;43.316;5.372;2024-01-11T02:20:42;4.07;;;3.30;;
73276;SDS011;61501;43.316;5.372;2024-01-11T02:23:08;3.20;;;2.80;;
73276;SDS011;61501;43.316;5.372;2024-01-11T02:25:41;3.65;;;2.85;;
73276;SDS011;61501;43.316;5.372;2024-01-11T02:28:07;4.88;;;3.25;;
73276;SDS011;61501;43.316;5.372;2024-01-11T02:30:33;3.70;;;2.58;;
73276;SDS011;61501;43.316;5.372;2024-01-11T02:32:59;3.92;;;2.80;;
73276;SDS011;61501;43.316;5.372;2024-01-11T02:35:26;3.47;;;2.78;;
73276;SDS011;61501;43.316;5.372;2024-01-11T02:37:52;3.53;;;3.08;;
73276;SDS011;61501;43.316;5.372;2024-01-11T02:40:19;3.95;;;2.95;;
73276;SDS011;61501;43.316;5.372;2024-01-11T02:42:45;3.47;;;2.65;;
73276;SDS011;61501;43.316;5.372;2024-01-11T02:45:11;3.38;;;2.72;;
73276;SDS011;61501;43.316;5.372;2024-01-11T02:47:40;3.53;;;2.80;;
73276;SDS011;61501;43.316;5.372;2024-01-11T02:50:06;4.25;;;2.88;;
73276;SDS011;61501;43.316;5.372;2024-01-11T02:52:32;4.07;;;2.42;;
73276;SDS011;61501;43.316;5.372;2024-01-11T02:54:58;2.85;;;2.53;;
73276;SDS011;61501;43.316;5.372;2024-01-11T02:57:24;4.35;;;2.45;;
73276;SDS011;61501;43.316;5.372;2024-01-11T02:59:51;3.38;;;2.65;;
73276;SDS011;61501;43.316;5.372;2024-01-11T03:02:16;4.00;;;2.47;;
73276;SDS011;61501;43.316;5.372;2024-01-11T03:04:42;3.97;;;2.70;;
73276;SDS011;61501;43.316;5.372;2024-01-11T03:07:08;4.32;;;2.60;;
73276;SDS011;61501;43.316;5.372;2024-01-11T03:09:34;4.53;;;3.00;;
73276;SDS011;61501;43.316;5.372;2024-01-11T03:11:59;4.38;;;2.50;;
73276;SDS011;61501;43.316;5.372;2024-01-11T03:14:25;3.35;;;2.88;;
73276;SDS011;61501;43.316;5.372;2024-01-11T03:16:51;3.13;;;2.80;;
73276;SDS011;61501;43.316;5.372;2024-01-11T03:19:16;2.90;;;2.60;;
73276;SDS011;61501;43.316;5.372;2024-01-11T03:21:45;3.25;;;2.22;;
73276;SDS011;61501;43.316;5.372;2024-01-11T03:24:11;3.22;;;2.75;;
73276;SDS011;61501;43.316;5.372;2024-01-11T03:26:38;3.55;;;2.58;;
73276;SDS011;61501;43.316;5.372;2024-01-11T03:29:03;3.47;;;2.60;;
73276;SDS011;61501;43.316;5.372;2024-01-11T03:31:29;3.60;;;2.78;;
73276;SDS011;61501;43.316;5.372;2024-01-11T03:33:55;3.78;;;2.65;;
73276;SDS011;61501;43.316;5.372;2024-01-11T03:36:22;4.78;;;3.05;;
73276;SDS011;61501;43.316;5.372;2024-01-11T03:38:49;3.58;;;2.95;;
73276;SDS011;61501;43.316;5.372;2024-01-11T03:41:15;4.50;;;2.85;;
73276;SDS011;61501;43.316;5.372;2024-01-11T03:43:41;3.55;;;2.70;;
73276;SDS011;61501;43.316;5.372;2024-01-11T03:46:07;3.78;;;3.05;;
73276;SDS011;61501;43.316;5.372;2024-01-11T03:48:32;5.28;;;3.22;;
73276;SDS011;61501;43.316;5.372;2024-01-11T03:51:00;4.30;;;3.50;;
73276;SDS011;61501;43.316;5.372;2024-01-11T03:53:26;4.18;;;3.40;;
73276;SDS011;61501;43.316;5.372;2024-01-11T03:55:52;4.25;;;3.15;;
73276;SDS011;61501;43.316;5.372;2024-01-11T03:58:17;3.72;;;2.80;;
73276;SDS011;61501;43.316;5.372;2024-01-11T04:00:43;3.63;;;2.75;;
73276;SDS011;61501;43.316;5.372;2024-01-11T04:03:09;4.18;;;3.10;;
73276;SDS011;61501;43.316;5.372;2024-01-11T04:05:34;3.78;;;3.13;;
73276;SDS011;61501;43.316;5.372;2024-01-11T04:08:02;3.38;;;3.03;;
73276;SDS011;61501;43.316;5.372;2024-01-11T04:10:29;3.30;;;2.90;;
73276;SDS011;61501;43.316;5.372;2024-01-11T04:12:55;4.28;;;3.08;;
73276;SDS011;61501;43.316;5.372;2024-01-11T04:15:21;4.10;;;3.05;;
73276;SDS011;61501;43.316;5.372;2024-01-11T04:17:46;4.43;;;3.10;;
73276;SDS011;61501;43.316;5.372;2024-01-11T04:20:12;4.05;;;3.10;;
73276;SDS011;61501;43.316;5.372;2024-01-11T04:22:38;4.50;;;3.05;;
73276;SDS011;61501;43.316;5.372;2024-01-11T04:25:04;3.30;;;3.00;;
73276;SDS011;61501;43.316;5.372;2024-01-11T04:27:30;3.47;;;3.00;;
73276;SDS011;61501;43.316;5.372;2024-01-11T04:29:56;4.38;;;2.97;;
73276;SDS011;61501;43.316;5.372;2024-01-11T04:32:21;3.70;;;3.10;;
73276;SDS011;61501;43.316;5.372;2024-01-11T04:34:47;4.13;;;3.08;;
73276;SDS011;61501;43.316;5.372;2024-01-11T04:37:13;4.75;;;3.53;;
73276;SDS011;61501;43.316;5.372;2024-01-11T04:39:38;5.18;;;3.33;;
73276;SDS011;61501;43.316;5.372;2024-01-11T04:42:04;4.20;;;3.05;;
73276;SDS011;61501;43.316;5.372;2024-01-11T04:44:30;3.70;;;3.05;;
73276;SDS011;61501;43.316;5.372;2024-01-11T04:46:55;6.32;;;3.20;;
73276;SDS011;61501;43.316;5.372;2024-01-11T04:49:21;3.60;;;3.30;;
73276;SDS011;61501;43.316;5.372;2024-01-11T04:51:47;4.15;;;3.28;;
73276;SDS011;61501;43.316;5.372;2024-01-11T04:54:13;4.05;;;3.13;;
73276;SDS011;61501;43.316;5.372;2024-01-11T04:56:39;5.57;;;3.72;;
73276;SDS011;61501;43.316;5.372;2024-01-11T04:59:04;4.97;;;3.38;;
73276;SDS011;61501;43.316;5.372;2024-01-11T05:01:30;5.15;;;3.33;;
73276;SDS011;61501;43.316;5.372;2024-01-11T05:03:55;4.13;;;3.10;;
73276;SDS011;61501;43.316;5.372;2024-01-11T05:06:22;4.38;;;3.38;;
73276;SDS011;61501;43.316;5.372;2024-01-11T05:08:49;5.63;;;3.42;;
73276;SDS011;61501;43.316;5.372;2024-01-11T05:11:17;4.65;;;3.30;;
73276;SDS011;61501;43.316;5.372;2024-01-11T05:13:47;3.95;;;3.22;;
73276;SDS011;61501;43.316;5.372;2024-01-11T05:16:26;4.15;;;3.05;;
73276;SDS011;61501;43.316;5.372;2024-01-11T05:18:53;3.75;;;3.00;;
73276;SDS011;61501;43.316;5.372;2024-01-11T05:21:20;13.65;;;12.45;;
73276;SDS011;61501;43.316;5.372;2024-01-11T05:23:46;8.60;;;7.50;;
73276;SDS011;61501;43.316;5.372;2024-01-11T05:26:12;4.15;;;3.25;;
73276;SDS011;61501;43.316;5.372;2024-01-11T05:28:40;4.20;;;3.67;;
73276;SDS011;61501;43.316;5.372;2024-01-11T05:31:07;15.38;;;14.07;;
73276;SDS011;61501;43.316;5.372;2024-01-11T05:33:34;9.05;;;8.25;;
73276;SDS011;61501;43.316;5.372;2024-01-11T05:36:00;4.55;;;3.60;;
73276;SDS011;61501;43.316;5.372;2024-01-11T05:38:26;6.05;;;3.80;;
73276;SDS011;61501;43.316;5.372;2024-01-11T05:40:51;4.35;;;3.05;;
73276;SDS011;61501;43.316;5.372;2024-01-11T05:43:17;3.92;;;3.30;;
73276;SDS011;61501;43.316;5.372;2024-01-11T05:45:42;3.38;;;2.85;;
73276;SDS011;61501;43.316;5.372;2024-01-11T05:48:09;4.25;;;3.25;;
73276;SDS011;61501;43.316;5.372;2024-01-11T05:50:35;4.85;;;3.00;;
73276;SDS011;61501;43.316;5.372;2024-01-11T05:53:01;3.88;;;2.83;;
73276;SDS011;61501;43.316;5.372;2024-01-11T05:55:27;3.78;;;2.80;;
73276;SDS011;61501;43.316;5.372;2024-01-11T05:57:53;4.35;;;3.20;;
73276;SDS011;61501;43.316;5.372;2024-01-11T06:00:19;3.65;;;2.80;;
73276;SDS011;61501;43.316;5.372;2024-01-11T06:02:45;4.85;;;2.88;;
73276;SDS011;61501;43.316;5.372;2024-01-11T06:05:11;5.47;;;3.33;;
73276;SDS011;61501;43.316;5.372;2024-01-11T06:07:40;4.78;;;3.17;;
73276;SDS011;61501;43.316;5.372;2024-01-11T06:10:06;4.43;;;3.35;;
73276;SDS011;61501;43.316;5.372;2024-01-11T06:12:33;4.30;;;3.08;;
73276;SDS011;61501;43.316;5.372;2024-01-11T06:15:00;4.82;;;3.55;;
73276;SDS011;61501;43.316;5.372;2024-01-11T06:17:26;4.43;;;3.30;;
73276;SDS011;61501;43.316;5.372;2024-01-11T06:19:52;4.55;;;3.42;;
73276;SDS011;61501;43.316;5.372;2024-01-11T06:22:17;4.05;;;3.17;;
73276;SDS011;61501;43.316;5.372;2024-01-11T06:24:43;4.68;;;3.47;;
73276;SDS011;61501;43.316;5.372;2024-01-11T06:27:09;4.65;;;3.83;;
73276;SDS011;61501;43.316;5.372;2024-01-11T06:29:35;5.15;;;3.45;;
73276;SDS011;61501;43.316;5.372;2024-01-11T06:32:00;5.13;;;3.58;;
73276;SDS011;61501;43.316;5.372;2024-01-11T06:34:27;4.13;;;3.55;;
73276;SDS011;61501;43.316;5.372;2024-01-11T06:36:53;5.65;;;3.75;;
73276;SDS011;61501;43.316;5.372;2024-01-11T06:39:21;6.55;;;3.67;;
73276;SDS011;61501;43.316;5.372;2024-01-11T06:41:47;4.78;;;4.10;;
73276;SDS011;61501;43.316;5.372;2024-01-11T06:44:15;5.32;;;3.95;;
73276;SDS011;61501;43.316;5.372;2024-01-11T06:46:41;5.25;;;4.13;;
73276;SDS011;61501;43.316;5.372;2024-01-11T06:49:07;6.60;;;4.00;;
73276;SDS011;61501;43.316;5.372;2024-01-11T06:51:33;6.65;;;3.80;;
73276;SDS011;61501;43.316;5.372;2024-01-11T06:53:59;5.65;;;3.90;;
73276;SDS011;61501;43.316;5.372;2024-01-11T06:56:26;5.30;;;3.97;;
73276;SDS011;61501;43.316;5.372;2024-01-11T06:58:52;5.90;;;3.60;;
73276;SDS011;61501;43.316;5.372;2024-01-11T07:01:19;5.03;;;3.22;;
73276;SDS011;61501;43.316;5.372;2024-01-11T07:03:45;3.97;;;3.35;;
73276;SDS011;61501;43.316;5.372;2024-01-11T07:06:11;4.63;;;3.50;;
73276;SDS011;61501;43.316;5.372;2024-01-11T07:08:37;6.10;;;3.42;;
73276;SDS011;61501;43.316;5.372;2024-01-11T07:11:02;4.63;;;3.47;;
73276;SDS011;61501;43.316;5.372;2024-01-11T07:13:28;5.25;;;3.33;;
73276;SDS011;61501;43.316;5.372;2024-01-11T07:15:54;5.00;;;2.95;;
73276;SDS011;61501;43.316;5.372;2024-01-11T07:18:22;3.40;;;2.60;;
73276;SDS011;61501;43.316;5.372;2024-01-11T07:20:47;3.13;;;2.28;;
73276;SDS011;61501;43.316;5.372;2024-01-11T07:23:17;3.75;;;2.65;;
73276;SDS011;61501;43.316;5.372;2024-01-11T07:25:43;4.38;;;3.50;;
73276;SDS011;61501;43.316;5.372;2024-01-11T07:28:09;5.25;;;3.58;;
73276;SDS011;61501;43.316;5.372;2024-01-11T07:30:34;3.97;;;3.25;;
73276;SDS011;61501;43.316;5.372;2024-01-11T07:33:00;4.28;;;3.17;;
73276;SDS011;61501;43.316;5.372;2024-01-11T07:35:26;5.68;;;3.95;;
73276;SDS011;61501;43.316;5.372;2024-01-11T07:37:52;6.30;;;4.25;;
73276;SDS011;61501;43.316;5.372;2024-01-11T07:40:18;7.10;;;4.40;;
73276;SDS011;61501;43.316;5.372;2024-01-11T07:42:44;10.93;;;4.78;;
73276;SDS011;61501;43.316;5.372;2024-01-11T07:45:11;7.38;;;4.57;;
73276;SDS011;61501;43.316;5.372;2024-01-11T07:47:36;7.88;;;4.78;;
73276;SDS011;61501;43.316;5.372;2024-01-11T07:50:06;6.45;;;4.43;;
73276;SDS011;61501;43.316;5.372;2024-01-11T07:52:32;8.98;;;4.65;;
73276;SDS011;61501;43.316;5.372;2024-01-11T07:54:58;6.45;;;4.13;;
73276;SDS011;61501;43.316;5.372;2024-01-11T07:57:34;6.75;;;4.18;;
73276;SDS011;61501;43.316;5.372;2024-01-11T08:00:00;7.30;;;4.38;;
73276;SDS011;61501;43.316;5.372;2024-01-11T08:02:27;7.30;;;4.40;;
73276;SDS011;61501;43.316;5.372;2024-01-11T08:04:53;6.07;;;4.75;;
73276;SDS011;61501;43.316;5.372;2024-01-11T08:07:19;7.43;;;5.50;;
73276;SDS011;61501;43.316;5.372;2024-01-11T08:09:44;8.63;;;5.68;;
73276;SDS011;61501;43.316;5.372;2024-01-11T08:12:16;8.70;;;6.45;;
73276;SDS011;61501;43.316;5.372;2024-01-11T08:14:42;8.20;;;6.25;;
73276;SDS011;61501;43.316;5.372;2024-01-11T08:17:08;6.72;;;5.70;;
73276;SDS011;61501;43.316;5.372;2024-01-11T08:19:34;7.57;;;6.20;;
73276;SDS011;61501;43.316;5.372;2024-01-11T08:22:00;7.60;;;6.57;;
73276;SDS011;61501;43.316;5.372;2024-01-11T08:24:26;7.15;;;6.45;;
73276;SDS011;61501;43.316;5.372;2024-01-11T08:26:52;7.45;;;6.75;;
73276;SDS011;61501;43.316;5.372;2024-01-11T08:29:17;8.65;;;7.82;;
73276;SDS011;61501;43.316;5.372;2024-01-11T08:31:45;10.25;;;9.25;;
73276;SDS011;61501;43.316;5.372;2024-01-11T08:34:11;13.02;;;8.85;;
73276;SDS011;61501;43.316;5.372;2024-01-11T08:36:37;11.68;;;10.35;;
73276;SDS011;61501;43.316;5.372;2024-01-11T08:39:04;14.38;;;11.90;;
73276;SDS011;61501;43.316;5.372;2024-01-11T08:41:36;13.45;;;11.90;;
73276;SDS011;61501;43.316;5.372;2024-01-11T08:44:02;14.25;;;12.95;;
73276;SDS011;61501;43.316;5.372;2024-01-11T08:46:30;15.23;;;13.77;;
73276;SDS011;61501;43.316;5.372;2024-01-11T08:48:58;12.93;;;11.75;;
73276;SDS011;61501;43.316;5.372;2024-01-11T08:51:24;13.60;;;8.10;;
73276;SDS011;61501;43.316;5.372;2024-01-11T08:53:49;9.75;;;8.82;;
73276;SDS011;61501;43.316;5.372;2024-01-11T08:56:15;6.97;;;6.28;;
73276;SDS011;61501;43.316;5.372;2024-01-11T08:58:43;6.88;;;6.18;;
73276;SDS011;61501;43.316;5.372;2024-01-11T09:01:09;7.05;;;6.38;;
73276;SDS011;61501;43.316;5.372;2024-01-11T09:03:35;8.88;;;6.00;;
73276;SDS011;61501;43.316;5.372;2024-01-11T09:06:01;7.97;;;6.30;;
73276;SDS011;61501;43.316;5.372;2024-01-11T09:08:28;7.30;;;6.60;;
73276;SDS011;61501;43.316;5.372;2024-01-11T09:10:54;8.82;;;7.28;;
73276;SDS011;61501;43.316;5.372;2024-01-11T09:13:28;11.48;;;7.55;;
73276;SDS011;61501;43.316;5.372;2024-01-11T09:15:54;14.65;;;9.48;;
73276;SDS011;61501;43.316;5.372;2024-01-11T09:18:20;16.17;;;11.50;;
73276;SDS011;61501;43.316;5.372;2024-01-11T09:20:46;23.30;;;14.02;;
73276;SDS011;61501;43.316;5.372;2024-01-11T09:23:12;19.58;;;13.48;;
73276;SDS011;61501;43.316;5.372;2024-01-11T09:25:39;19.95;;;13.40;;
73276;SDS011;61501;43.316;5.372;2024-01-11T09:28:05;23.45;;;13.52;;
73276;SDS011;61501;43.316;5.372;2024-01-11T09:30:30;21.33;;;12.95;;
73276;SDS011;61501;43.316;5.372;2024-01-11T09:32:56;17.65;;;11.10;;
73276;SDS011;61501;43.316;5.372;2024-01-11T09:35:22;15.57;;;9.77;;
73276;SDS011;61501;43.316;5.372;2024-01-11T09:37:48;12.10;;;7.75;;
73276;SDS011;61501;43.316;5.372;2024-01-11T09:40:14;8.93;;;6.70;;
73276;SDS011;61501;43.316;5.372;2024-01-11T09:42:42;8.00;;;5.90;;
73276;SDS011;61501;43.316;5.372;2024-01-11T09:45:08;10.50;;;6.78;;
73276;SDS011;61501;43.316;5.372;2024-01-11T09:47:38;11.98;;;6.38;;
73276;SDS011;61501;43.316;5.372;2024-01-11T09:50:05;8.25;;;5.47;;
73276;SDS011;61501;43.316;5.372;2024-01-11T09:52:32;8.60;;;5.88;;
73276;SDS011;61501;43.316;5.372;2024-01-11T09:54:58;6.85;;;5.00;;
73276;SDS011;61501;43.316;5.372;2024-01-11T09:57:26;6.13;;;5.43;;
73276;SDS011;61501;43.316;5.372;2024-01-11T09:59:56;6.40;;;4.80;;
73276;SDS011;61501;43.316;5.372;2024-01-11T10:05:44;6.45;;;5.10;;
73276;SDS011;61501;43.316;5.372;2024-01-11T10:08:11;6.05;;;5.05;;
73276;SDS011;61501;43.316;5.372;2024-01-11T10:10:37;5.65;;;5.00;;
73276;SDS011;61501;43.316;5.372;2024-01-11T10:13:03;5.05;;;4.50;;
73276;SDS011;61501;43.316;5.372;2024-01-11T10:15:30;5.07;;;4.57;;
73276;SDS011;61501;43.316;5.372;2024-01-11T10:17:55;5.20;;;4.70;;
73276;SDS011;61501;43.316;5.372;2024-01-11T10:20:21;5.53;;;4.93;;
73276;SDS011;61501;43.316;5.372;2024-01-11T10:22:49;6.72;;;6.13;;
73276;SDS011;61501;43.316;5.372;2024-01-11T10:25:16;7.00;;;6.10;;
73276;SDS011;61501;43.316;5.372;2024-01-11T10:27:43;8.00;;;6.70;;
73276;SDS011;61501;43.316;5.372;2024-01-11T10:30:13;7.00;;;6.30;;
73276;SDS011;61501;43.316;5.372;2024-01-11T10:35:37;6.90;;;6.30;;
73276;SDS011;61501;43.316;5.372;2024-01-11T10:38:04;6.32;;;5.72;;
73276;SDS011;61501;43.316;5.372;2024-01-11T10:40:34;6.75;;;6.15;;
73276;SDS011;61501;43.316;5.372;2024-01-11T10:43:01;5.97;;;5.45;;
73276;SDS011;61501;43.316;5.372;2024-01-11T10:45:30;6.50;;;5.82;;
73276;SDS011;61501;43.316;5.372;2024-01-11T10:48:03;5.93;;;5.32;;
73276;SDS011;61501;43.316;5.372;2024-01-11T10:50:35;6.07;;;5.47;;
73276;SDS011;61501;43.316;5.372;2024-01-11T10:55:37;7.43;;;5.70;;
73276;SDS011;61501;43.316;5.372;2024-01-11T10:58:05;5.63;;;5.13;;
73276;SDS011;61501;43.316;5.372;2024-01-11T11:00:31;6.38;;;5.65;;
73276;SDS011;61501;43.316;5.372;2024-01-11T11:02:59;5.55;;;5.05;;
73276;SDS011;61501;43.316;5.372;2024-01-11T11:05:27;5.68;;;5.07;;
73276;SDS011;61501;43.316;5.372;2024-01-11T11:07:56;5.70;;;5.10;;
73276;SDS011;61501;43.316;5.372;2024-01-11T11:10:24;5.20;;;4.70;;
73276;SDS011;61501;43.316;5.372;2024-01-11T11:12:58;5.85;;;5.15;;
73276;SDS011;61501;43.316;5.372;2024-01-11T11:15:24;5.68;;;5.15;;
73276;SDS011;61501;43.316;5.372;2024-01-11T11:17:55;5.88;;;5.28;;
73276;SDS011;61501;43.316;5.372;2024-01-11T11:20:22;5.32;;;4.82;;
73276;SDS011;61501;43.316;5.372;2024-01-11T11:23:09;5.30;;;4.78;;
73276;SDS011;61501;43.316;5.372;2024-01-11T11:25:39;5.47;;;4.97;;
73276;SDS011;61501;43.316;5.372;2024-01-11T11:28:05;5.20;;;4.63;;
73276;SDS011;61501;43.316;5.372;2024-01-11T11:30:38;5.30;;;4.65;;
73276;SDS011;61501;43.316;5.372;2024-01-11T11:33:11;4.70;;;4.30;;
73276;SDS011;61501;43.316;5.372;2024-01-11T11:35:53;5.40;;;4.90;;
73276;SDS011;61501;43.316;5.372;2024-01-11T11:38:23;4.80;;;4.28;;
73276;SDS011;61501;43.316;5.372;2024-01-11T11:40:52;5.38;;;4.72;;
73276;SDS011;61501;43.316;5.372;2024-01-11T11:43:22;4.80;;;4.30;;
73276;SDS011;61501;43.316;5.372;2024-01-11T11:45:49;4.30;;;3.90;;
73276;SDS011;61501;43.316;5.372;2024-01-11T11:51:06;6.05;;;4.90;;
73276;SDS011;61501;43.316;5.372;2024-01-11T11:53:40;5.35;;;4.60;;
73276;SDS011;61501;43.316;5.372;2024-01-11T11:56:07;5.15;;;4.38;;
73276;SDS011;61501;43.316;5.372;2024-01-11T11:58:37;5.53;;;4.38;;
73276;SDS011;61501;43.316;5.372;2024-01-11T12:01:04;4.10;;;3.70;;
73276;SDS011;61501;43.316;5.372;2024-01-11T12:03:30;5.28;;;4.60;;
73276;SDS011;61501;43.316;5.372;2024-01-11T12:05:57;5.30;;;4.80;;
73276;SDS011;61501;43.316;5.372;2024-01-11T12:08:23;6.10;;;5.00;;
73276;SDS011;61501;43.316;5.372;2024-01-11T12:10:49;6.22;;;5.00;;
73276;SDS011;61501;43.316;5.372;2024-01-11T12:16:34;6.72;;;6.00;;
73276;SDS011;61501;43.316;5.372;2024-01-11T12:19:00;5.30;;;4.78;;
73276;SDS011;61501;43.316;5.372;2024-01-11T12:21:25;5.88;;;4.93;;
73276;SDS011;61501;43.316;5.372;2024-01-11T12:23:52;5.35;;;4.85;;
73276;SDS011;61501;43.316;5.372;2024-01-11T12:26:17;6.03;;;5.10;;
73276;SDS011;61501;43.316;5.372;2024-01-11T12:28:46;5.15;;;4.25;;
73276;SDS011;61501;43.316;5.372;2024-01-11T12:31:12;4.85;;;4.32;;
73276;SDS011;61501;43.316;5.372;2024-01-11T12:33:38;5.32;;;4.63;;
73276;SDS011;61501;43.316;5.372;2024-01-11T12:36:04;4.63;;;4.22;;
73276;SDS011;61501;43.316;5.372;2024-01-11T12:38:31;4.68;;;4.28;;
73276;SDS011;61501;43.316;5.372;2024-01-11T12:40:59;4.53;;;4.13;;
73276;SDS011;61501;43.316;5.372;2024-01-11T12:43:24;4.40;;;4.00;;
73276;SDS011;61501;43.316;5.372;2024-01-11T12:45:50;4.90;;;4.40;;
73276;SDS011;61501;43.316;5.372;2024-01-11T12:48:16;5.85;;;4.85;;
73276;SDS011;61501;43.316;5.372;2024-01-11T12:50:43;5.55;;;4.18;;
73276;SDS011;61501;43.316;5.372;2024-01-11T12:53:10;5.00;;;4.15;;
73276;SDS011;61501;43.316;5.372;2024-01-11T12:55:43;6.10;;;4.78;;
73276;SDS011;61501;43.316;5.372;2024-01-11T12:58:12;5.90;;;5.07;;
73276;SDS011;61501;43.316;5.372;2024-01-11T13:00:39;5.00;;;4.53;;
73276;SDS011;61501;43.316;5.372;2024-01-11T13:03:05;6.45;;;5.68;;
73276;SDS011;61501;43.316;5.372;2024-01-11T13:05:37;7.13;;;5.53;;
73276;SDS011;61501;43.316;5.372;2024-01-11T13:08:07;5.97;;;5.05;;
73276;SDS011;61501;43.316;5.372;2024-01-11T13:10:33;7.88;;;5.22;;
73276;SDS011;61501;43.316;5.372;2024-01-11T13:13:01;8.02;;;5.00;;
73276;SDS011;61501;43.316;5.372;2024-01-11T13:15:27;5.18;;;4.68;;
73276;SDS011;61501;43.316;5.372;2024-01-11T13:17:57;6.82;;;4.93;;
73276;SDS011;61501;43.316;5.372;2024-01-11T13:20:23;6.85;;;4.70;;
73276;SDS011;61501;43.316;5.372;2024-01-11T13:22:49;5.72;;;5.15;;
73276;SDS011;61501;43.316;5.372;2024-01-11T13:25:18;6.40;;;4.95;;
73276;SDS011;61501;43.316;5.372;2024-01-11T13:27:44;4.95;;;4.47;;
73276;SDS011;61501;43.316;5.372;2024-01-11T13:30:10;4.60;;;4.20;;
73276;SDS011;61501;43.316;5.372;2024-01-11T13:32:35;5.05;;;4.45;;
73276;SDS011;61501;43.316;5.372;2024-01-11T13:35:01;5.05;;;4.55;;
73276;SDS011;61501;43.316;5.372;2024-01-11T13:37:27;5.22;;;4.70;;
73276;SDS011;61501;43.316;5.372;2024-01-11T13:39:52;6.80;;;5.05;;
73276;SDS011;61501;43.316;5.372;2024-01-11T13:42:18;5.80;;;4.50;;
73276;SDS011;61501;43.316;5.372;2024-01-11T13:44:44;6.85;;;4.60;;
73276;SDS011;61501;43.316;5.372;2024-01-11T13:47:09;6.95;;;5.25;;
73276;SDS011;61501;43.316;5.372;2024-01-11T13:49:35;7.47;;;4.68;;
73276;SDS011;61501;43.316;5.372;2024-01-11T13:52:00;8.20;;;6.05;;
73276;SDS011;61501;43.316;5.372;2024-01-11T13:54:26;6.70;;;5.90;;
73276;SDS011;61501;43.316;5.372;2024-01-11T13:56:52;7.35;;;5.65;;
73276;SDS011;61501;43.316;5.372;2024-01-11T13:59:18;8.45;;;6.15;;
73276;SDS011;61501;43.316;5.372;2024-01-11T14:01:44;7.63;;;5.82;;
73276;SDS011;61501;43.316;5.372;2024-01-11T14:04:09;8.13;;;5.63;;
73276;SDS011;61501;43.316;5.372;2024-01-11T14:06:35;7.45;;;6.18;;
73276;SDS011;61501;43.316;5.372;2024-01-11T14:09:01;6.32;;;5.65;;
73276;SDS011;61501;43.316;5.372;2024-01-11T14:11:29;7.22;;;5.68;;
73276;SDS011;61501;43.316;5.372;2024-01-11T14:13:55;7.38;;;5.45;;
73276;SDS011;61501;43.316;5.372;2024-01-11T14:16:21;6.22;;;5.63;;
73276;SDS011;61501;43.316;5.372;2024-01-11T14:18:46;7.35;;;5.60;;
73276;SDS011;61501;43.316;5.372;2024-01-11T14:21:13;7.50;;;6.70;;
73276;SDS011;61501;43.316;5.372;2024-01-11T14:23:39;7.13;;;6.43;;
73276;SDS011;61501;43.316;5.372;2024-01-11T14:26:05;8.25;;;6.80;;
73276;SDS011;61501;43.316;5.372;2024-01-11T14:28:31;8.48;;;7.20;;
73276;SDS011;61501;43.316;5.372;2024-01-11T14:30:57;8.20;;;7.40;;
73276;SDS011;61501;43.316;5.372;2024-01-11T14:33:23;7.88;;;7.15;;
73276;SDS011;61501;43.316;5.372;2024-01-11T14:35:48;9.38;;;8.48;;
73276;SDS011;61501;43.316;5.372;2024-01-11T14:38:14;8.80;;;8.00;;
73276;SDS011;61501;43.316;5.372;2024-01-11T14:40:39;8.77;;;7.97;;
73276;SDS011;61501;43.316;5.372;2024-01-11T14:43:06;9.52;;;8.73;;
73276;SDS011;61501;43.316;5.372;2024-01-11T14:45:33;9.15;;;8.25;;
73276;SDS011;61501;43.316;5.372;2024-01-11T14:47:59;8.90;;;8.02;;
73276;SDS011;61501;43.316;5.372;2024-01-11T14:50:25;8.95;;;8.13;;
73276;SDS011;61501;43.316;5.372;2024-01-11T14:52:51;9.98;;;8.98;;
73276;SDS011;61501;43.316;5.372;2024-01-11T14:55:17;9.55;;;8.55;;
73276;SDS011;61501;43.316;5.372;2024-01-11T14:57:42;10.10;;;9.18;;